sensor_id;sensor_type;location;lat;lon;timestamp;P1;durP1;ratioP1;P2;durP2;ratioP2
65459;SDS011;52058;49.822;6.754;2022-08-05T00:02:08;6.90;;;4.53;;
65459;SDS011;52058;49.822;6.754;2022-08-05T00:04:33;9.43;;;4.45;;
65459;SDS011;52058;49.822;6.754;2022-08-05T00:06:59;6.88;;;4.72;;
65459;SDS011;52058;49.822;6.754;2022-08-05T00:09:24;10.52;;;4.65;;
65459;SDS011;52058;49.822;6.754;2022-08-05T00:11:49;6.57;;;4.47;;
65459;SDS011;52058;49.822;6.754;2022-08-05T00:14:15;4.70;;;3.83;;
65459;SDS011;52058;49.822;6.754;2022-08-05T00:16:41;8.60;;;4.03;;
65459;SDS011;52058;49.822;6.754;2022-08-05T00:19:06;7.65;;;4.15;;
65459;SDS011;52058;49.822;6.754;2022-08-05T00:21:31;11.05;;;3.88;;
65459;SDS011;52058;49.822;6.754;2022-08-05T00:23:57;10.35;;;4.78;;
65459;SDS011;52058;49.822;6.754;2022-08-05T00:26:24;6.47;;;3.60;;
65459;SDS011;52058;49.822;6.754;2022-08-05T00:28:50;8.10;;;4.13;;
65459;SDS011;52058;49.822;6.754;2022-08-05T00:31:15;6.45;;;3.67;;
65459;SDS011;52058;49.822;6.754;2022-08-05T00:33:40;7.15;;;4.45;;
65459;SDS011;52058;49.822;6.754;2022-08-05T00:36:06;8.07;;;3.78;;
65459;SDS011;52058;49.822;6.754;2022-08-05T00:38:31;5.95;;;4.40;;
65459;SDS011;52058;49.822;6.754;2022-08-05T00:40:57;6.20;;;4.05;;
65459;SDS011;52058;49.822;6.754;2022-08-05T00:43:25;6.57;;;3.90;;
65459;SDS011;52058;49.822;6.754;2022-08-05T00:45:51;8.23;;;4.53;;
65459;SDS011;52058;49.822;6.754;2022-08-05T00:48:17;5.50;;;3.90;;
65459;SDS011;52058;49.822;6.754;2022-08-05T00:50:45;6.90;;;3.85;;
65459;SDS011;52058;49.822;6.754;2022-08-05T00:53:12;9.68;;;4.30;;
65459;SDS011;52058;49.822;6.754;2022-08-05T00:55:40;6.43;;;3.95;;
65459;SDS011;52058;49.822;6.754;2022-08-05T00:58:06;6.45;;;3.50;;
65459;SDS011;52058;49.822;6.754;2022-08-05T01:00:31;6.53;;;3.78;;
65459;SDS011;52058;49.822;6.754;2022-08-05T01:02:57;7.85;;;3.72;;
65459;SDS011;52058;49.822;6.754;2022-08-05T01:05:23;5.80;;;3.50;;
65459;SDS011;52058;49.822;6.754;2022-08-05T01:07:49;6.97;;;3.60;;
65459;SDS011;52058;49.822;6.754;2022-08-05T01:10:15;8.05;;;4.38;;
65459;SDS011;52058;49.822;6.754;2022-08-05T01:12:46;6.43;;;3.92;;
65459;SDS011;52058;49.822;6.754;2022-08-05T01:15:16;6.05;;;4.13;;
65459;SDS011;52058;49.822;6.754;2022-08-05T01:17:49;6.82;;;4.10;;
65459;SDS011;52058;49.822;6.754;2022-08-05T01:20:28;11.02;;;5.00;;
65459;SDS011;52058;49.822;6.754;2022-08-05T01:26:02;6.22;;;5.05;;
65459;SDS011;52058;49.822;6.754;2022-08-05T01:28:32;6.57;;;4.50;;
65459;SDS011;52058;49.822;6.754;2022-08-05T01:33:36;5.57;;;4.23;;
65459;SDS011;52058;49.822;6.754;2022-08-05T01:36:08;8.13;;;4.30;;
65459;SDS011;52058;49.822;6.754;2022-08-05T01:38:36;7.18;;;4.55;;
65459;SDS011;52058;49.822;6.754;2022-08-05T01:41:02;5.88;;;4.30;;
65459;SDS011;52058;49.822;6.754;2022-08-05T01:43:29;6.95;;;3.63;;
65459;SDS011;52058;49.822;6.754;2022-08-05T01:45:56;7.53;;;4.30;;
65459;SDS011;52058;49.822;6.754;2022-08-05T01:48:22;7.65;;;4.32;;
65459;SDS011;52058;49.822;6.754;2022-08-05T01:50:51;4.60;;;3.78;;
65459;SDS011;52058;49.822;6.754;2022-08-05T01:53:19;7.20;;;3.67;;
65459;SDS011;52058;49.822;6.754;2022-08-05T01:55:46;8.10;;;4.28;;
65459;SDS011;52058;49.822;6.754;2022-08-05T01:58:14;7.18;;;4.53;;
65459;SDS011;52058;49.822;6.754;2022-08-05T02:00:42;6.45;;;4.38;;
65459;SDS011;52058;49.822;6.754;2022-08-05T02:05:52;5.10;;;3.65;;
65459;SDS011;52058;49.822;6.754;2022-08-05T02:08:19;4.40;;;3.85;;
65459;SDS011;52058;49.822;6.754;2022-08-05T02:10:47;6.75;;;4.20;;
65459;SDS011;52058;49.822;6.754;2022-08-05T02:13:18;7.45;;;4.45;;
65459;SDS011;52058;49.822;6.754;2022-08-05T02:15:57;5.70;;;3.92;;
65459;SDS011;52058;49.822;6.754;2022-08-05T02:18:42;6.90;;;4.22;;
65459;SDS011;52058;49.822;6.754;2022-08-05T02:21:12;5.65;;;4.28;;
65459;SDS011;52058;49.822;6.754;2022-08-05T02:23:40;7.85;;;4.65;;
65459;SDS011;52058;49.822;6.754;2022-08-05T02:26:09;8.88;;;4.85;;
65459;SDS011;52058;49.822;6.754;2022-08-05T02:28:39;8.32;;;5.10;;
65459;SDS011;52058;49.822;6.754;2022-08-05T02:31:14;8.73;;;4.82;;
65459;SDS011;52058;49.822;6.754;2022-08-05T02:33:46;7.82;;;4.45;;
65459;SDS011;52058;49.822;6.754;2022-08-05T02:36:15;11.38;;;5.57;;
65459;SDS011;52058;49.822;6.754;2022-08-05T02:38:44;10.68;;;6.35;;
65459;SDS011;52058;49.822;6.754;2022-08-05T02:41:10;14.18;;;6.47;;
65459;SDS011;52058;49.822;6.754;2022-08-05T02:43:36;11.75;;;6.63;;
65459;SDS011;52058;49.822;6.754;2022-08-05T02:46:04;13.85;;;6.95;;
65459;SDS011;52058;49.822;6.754;2022-08-05T02:48:30;10.10;;;6.00;;
65459;SDS011;52058;49.822;6.754;2022-08-05T02:50:58;9.82;;;6.20;;
65459;SDS011;52058;49.822;6.754;2022-08-05T02:53:24;11.20;;;6.40;;
65459;SDS011;52058;49.822;6.754;2022-08-05T02:55:51;14.95;;;6.97;;
65459;SDS011;52058;49.822;6.754;2022-08-05T02:58:18;10.27;;;5.90;;
65459;SDS011;52058;49.822;6.754;2022-08-05T03:00:45;8.93;;;6.55;;
65459;SDS011;52058;49.822;6.754;2022-08-05T03:03:14;15.80;;;7.68;;
65459;SDS011;52058;49.822;6.754;2022-08-05T03:05:42;10.32;;;7.55;;
65459;SDS011;52058;49.822;6.754;2022-08-05T03:08:09;16.48;;;8.25;;
65459;SDS011;52058;49.822;6.754;2022-08-05T03:10:35;11.77;;;7.10;;
65459;SDS011;52058;49.822;6.754;2022-08-05T03:13:00;11.65;;;7.28;;
65459;SDS011;52058;49.822;6.754;2022-08-05T03:15:25;15.93;;;8.43;;
65459;SDS011;52058;49.822;6.754;2022-08-05T03:17:51;12.40;;;8.02;;
65459;SDS011;52058;49.822;6.754;2022-08-05T03:20:18;9.98;;;7.53;;
65459;SDS011;52058;49.822;6.754;2022-08-05T03:22:43;15.55;;;8.88;;
65459;SDS011;52058;49.822;6.754;2022-08-05T03:25:08;14.27;;;9.13;;
65459;SDS011;52058;49.822;6.754;2022-08-05T03:27:35;12.20;;;8.48;;
65459;SDS011;52058;49.822;6.754;2022-08-05T03:30:00;13.40;;;9.43;;
65459;SDS011;52058;49.822;6.754;2022-08-05T03:32:25;15.52;;;9.75;;
65459;SDS011;52058;49.822;6.754;2022-08-05T03:34:51;13.70;;;9.02;;
65459;SDS011;52058;49.822;6.754;2022-08-05T03:37:17;15.23;;;10.05;;
65459;SDS011;52058;49.822;6.754;2022-08-05T03:39:54;15.63;;;9.13;;
65459;SDS011;52058;49.822;6.754;2022-08-05T03:42:20;12.98;;;8.63;;
65459;SDS011;52058;49.822;6.754;2022-08-05T03:44:46;12.63;;;8.38;;
65459;SDS011;52058;49.822;6.754;2022-08-05T03:47:11;12.93;;;8.20;;
65459;SDS011;52058;49.822;6.754;2022-08-05T03:49:36;14.50;;;8.95;;
65459;SDS011;52058;49.822;6.754;2022-08-05T03:52:02;13.27;;;8.82;;
65459;SDS011;52058;49.822;6.754;2022-08-05T03:54:34;19.60;;;9.77;;
65459;SDS011;52058;49.822;6.754;2022-08-05T03:57:01;19.30;;;11.07;;
65459;SDS011;52058;49.822;6.754;2022-08-05T03:59:33;17.00;;;11.00;;
65459;SDS011;52058;49.822;6.754;2022-08-05T04:02:04;22.10;;;11.68;;
65459;SDS011;52058;49.822;6.754;2022-08-05T04:04:31;18.88;;;11.90;;
65459;SDS011;52058;49.822;6.754;2022-08-05T04:06:58;18.00;;;12.02;;
65459;SDS011;52058;49.822;6.754;2022-08-05T04:09:24;21.10;;;12.70;;
65459;SDS011;52058;49.822;6.754;2022-08-05T04:11:50;20.83;;;13.38;;
65459;SDS011;52058;49.822;6.754;2022-08-05T04:14:16;18.63;;;12.73;;
65459;SDS011;52058;49.822;6.754;2022-08-05T04:16:42;19.17;;;12.98;;
65459;SDS011;52058;49.822;6.754;2022-08-05T04:19:11;20.77;;;12.23;;
65459;SDS011;52058;49.822;6.754;2022-08-05T04:21:37;21.20;;;12.75;;
65459;SDS011;52058;49.822;6.754;2022-08-05T04:24:03;21.52;;;12.02;;
65459;SDS011;52058;49.822;6.754;2022-08-05T04:26:29;26.65;;;12.05;;
65459;SDS011;52058;49.822;6.754;2022-08-05T04:28:55;20.80;;;12.57;;
65459;SDS011;52058;49.822;6.754;2022-08-05T04:31:20;21.92;;;12.45;;
65459;SDS011;52058;49.822;6.754;2022-08-05T04:33:45;21.33;;;13.68;;
65459;SDS011;52058;49.822;6.754;2022-08-05T04:36:11;25.17;;;14.02;;
65459;SDS011;52058;49.822;6.754;2022-08-05T04:38:38;26.02;;;14.98;;
65459;SDS011;52058;49.822;6.754;2022-08-05T04:41:03;39.70;;;16.73;;
65459;SDS011;52058;49.822;6.754;2022-08-05T04:43:28;23.05;;;14.13;;
65459;SDS011;52058;49.822;6.754;2022-08-05T04:45:53;26.13;;;14.68;;
65459;SDS011;52058;49.822;6.754;2022-08-05T04:48:19;23.02;;;13.70;;
65459;SDS011;52058;49.822;6.754;2022-08-05T04:50:45;23.70;;;14.70;;
65459;SDS011;52058;49.822;6.754;2022-08-05T04:53:12;20.95;;;12.18;;
65459;SDS011;52058;49.822;6.754;2022-08-05T04:55:40;23.00;;;13.65;;
65459;SDS011;52058;49.822;6.754;2022-08-05T04:58:07;25.15;;;15.48;;
65459;SDS011;52058;49.822;6.754;2022-08-05T05:00:34;28.23;;;15.60;;
65459;SDS011;52058;49.822;6.754;2022-08-05T05:03:00;30.13;;;13.93;;
65459;SDS011;52058;49.822;6.754;2022-08-05T05:05:26;20.35;;;13.73;;
65459;SDS011;52058;49.822;6.754;2022-08-05T05:07:53;19.35;;;13.07;;
65459;SDS011;52058;49.822;6.754;2022-08-05T05:10:19;23.27;;;14.88;;
65459;SDS011;52058;49.822;6.754;2022-08-05T05:12:44;23.83;;;15.70;;
65459;SDS011;52058;49.822;6.754;2022-08-05T05:15:09;31.17;;;16.40;;
65459;SDS011;52058;49.822;6.754;2022-08-05T05:17:35;26.85;;;16.98;;
65459;SDS011;52058;49.822;6.754;2022-08-05T05:20:02;30.27;;;16.02;;
65459;SDS011;52058;49.822;6.754;2022-08-05T05:22:27;31.70;;;17.35;;
65459;SDS011;52058;49.822;6.754;2022-08-05T05:24:53;33.93;;;17.23;;
65459;SDS011;52058;49.822;6.754;2022-08-05T05:27:19;21.35;;;13.93;;
65459;SDS011;52058;49.822;6.754;2022-08-05T05:29:44;26.02;;;14.65;;
65459;SDS011;52058;49.822;6.754;2022-08-05T05:32:09;25.70;;;14.90;;
65459;SDS011;52058;49.822;6.754;2022-08-05T05:34:34;22.07;;;12.63;;
65459;SDS011;52058;49.822;6.754;2022-08-05T05:36:59;23.05;;;13.57;;
65459;SDS011;52058;49.822;6.754;2022-08-05T05:39:25;18.80;;;10.63;;
65459;SDS011;52058;49.822;6.754;2022-08-05T05:41:50;15.67;;;10.67;;
65459;SDS011;52058;49.822;6.754;2022-08-05T05:44:15;14.13;;;10.02;;
65459;SDS011;52058;49.822;6.754;2022-08-05T05:46:40;16.67;;;10.88;;
65459;SDS011;52058;49.822;6.754;2022-08-05T05:49:06;18.55;;;11.80;;
65459;SDS011;52058;49.822;6.754;2022-08-05T05:51:31;18.45;;;10.90;;
65459;SDS011;52058;49.822;6.754;2022-08-05T05:53:56;15.98;;;11.23;;
65459;SDS011;52058;49.822;6.754;2022-08-05T05:56:23;18.15;;;10.73;;
65459;SDS011;52058;49.822;6.754;2022-08-05T05:58:48;15.93;;;10.27;;
65459;SDS011;52058;49.822;6.754;2022-08-05T06:01:13;16.95;;;10.80;;
65459;SDS011;52058;49.822;6.754;2022-08-05T06:03:39;17.75;;;11.15;;
65459;SDS011;52058;49.822;6.754;2022-08-05T06:06:05;14.65;;;10.80;;
65459;SDS011;52058;49.822;6.754;2022-08-05T06:08:31;18.75;;;11.15;;
65459;SDS011;52058;49.822;6.754;2022-08-05T06:10:57;16.08;;;10.00;;
65459;SDS011;52058;49.822;6.754;2022-08-05T06:13:22;15.10;;;10.55;;
65459;SDS011;52058;49.822;6.754;2022-08-05T06:15:47;15.80;;;10.27;;
65459;SDS011;52058;49.822;6.754;2022-08-05T06:18:13;14.75;;;10.10;;
65459;SDS011;52058;49.822;6.754;2022-08-05T06:20:38;14.00;;;8.82;;
65459;SDS011;52058;49.822;6.754;2022-08-05T06:23:03;12.90;;;8.38;;
65459;SDS011;52058;49.822;6.754;2022-08-05T06:25:29;17.10;;;9.75;;
65459;SDS011;52058;49.822;6.754;2022-08-05T06:27:54;12.52;;;8.70;;
65459;SDS011;52058;49.822;6.754;2022-08-05T06:30:19;13.32;;;9.07;;
65459;SDS011;52058;49.822;6.754;2022-08-05T06:32:44;12.32;;;8.00;;
65459;SDS011;52058;49.822;6.754;2022-08-05T06:35:10;11.90;;;8.85;;
65459;SDS011;52058;49.822;6.754;2022-08-05T06:37:35;14.60;;;8.93;;
65459;SDS011;52058;49.822;6.754;2022-08-05T06:40:00;11.15;;;7.68;;
65459;SDS011;52058;49.822;6.754;2022-08-05T06:42:26;8.70;;;7.55;;
65459;SDS011;52058;49.822;6.754;2022-08-05T06:44:51;11.73;;;7.38;;
65459;SDS011;52058;49.822;6.754;2022-08-05T06:47:16;12.77;;;7.20;;
65459;SDS011;52058;49.822;6.754;2022-08-05T06:49:42;9.85;;;6.53;;
65459;SDS011;52058;49.822;6.754;2022-08-05T06:52:07;9.75;;;6.85;;
65459;SDS011;52058;49.822;6.754;2022-08-05T06:54:33;8.80;;;6.32;;
65459;SDS011;52058;49.822;6.754;2022-08-05T06:56:58;9.43;;;6.57;;
65459;SDS011;52058;49.822;6.754;2022-08-05T06:59:23;9.48;;;6.22;;
65459;SDS011;52058;49.822;6.754;2022-08-05T07:01:49;9.48;;;5.90;;
65459;SDS011;52058;49.822;6.754;2022-08-05T07:04:14;8.57;;;5.72;;
65459;SDS011;52058;49.822;6.754;2022-08-05T07:06:39;6.78;;;5.60;;
65459;SDS011;52058;49.822;6.754;2022-08-05T07:09:05;6.78;;;4.78;;
65459;SDS011;52058;49.822;6.754;2022-08-05T07:11:31;5.55;;;4.55;;
65459;SDS011;52058;49.822;6.754;2022-08-05T07:13:59;6.47;;;4.63;;
65459;SDS011;52058;49.822;6.754;2022-08-05T07:16:43;5.68;;;4.68;;
65459;SDS011;52058;49.822;6.754;2022-08-05T07:19:18;7.75;;;4.20;;
65459;SDS011;52058;49.822;6.754;2022-08-05T07:21:45;6.30;;;4.45;;
65459;SDS011;52058;49.822;6.754;2022-08-05T07:24:12;5.57;;;4.90;;
65459;SDS011;52058;49.822;6.754;2022-08-05T07:26:38;6.05;;;4.00;;
65459;SDS011;52058;49.822;6.754;2022-08-05T07:29:04;6.80;;;4.18;;
65459;SDS011;52058;49.822;6.754;2022-08-05T07:31:29;7.32;;;4.82;;
65459;SDS011;52058;49.822;6.754;2022-08-05T07:33:55;5.53;;;4.43;;
65459;SDS011;52058;49.822;6.754;2022-08-05T07:36:20;6.28;;;4.40;;
65459;SDS011;52058;49.822;6.754;2022-08-05T07:38:45;4.70;;;4.10;;
65459;SDS011;52058;49.822;6.754;2022-08-05T07:41:13;4.47;;;3.92;;
65459;SDS011;52058;49.822;6.754;2022-08-05T07:43:40;4.57;;;4.10;;
65459;SDS011;52058;49.822;6.754;2022-08-05T07:46:06;6.82;;;3.75;;
65459;SDS011;52058;49.822;6.754;2022-08-05T07:48:31;7.55;;;4.20;;
65459;SDS011;52058;49.822;6.754;2022-08-05T07:50:56;6.40;;;4.40;;
65459;SDS011;52058;49.822;6.754;2022-08-05T07:53:21;11.13;;;5.13;;
65459;SDS011;52058;49.822;6.754;2022-08-05T07:55:47;4.32;;;3.75;;
65459;SDS011;52058;49.822;6.754;2022-08-05T07:58:12;7.27;;;4.00;;
65459;SDS011;52058;49.822;6.754;2022-08-05T08:00:37;7.40;;;4.68;;
65459;SDS011;52058;49.822;6.754;2022-08-05T08:03:02;7.20;;;4.60;;
65459;SDS011;52058;49.822;6.754;2022-08-05T08:05:34;6.97;;;4.30;;
65459;SDS011;52058;49.822;6.754;2022-08-05T08:07:59;6.10;;;4.55;;
65459;SDS011;52058;49.822;6.754;2022-08-05T08:10:24;5.47;;;4.47;;
65459;SDS011;52058;49.822;6.754;2022-08-05T08:12:50;4.70;;;4.00;;
65459;SDS011;52058;49.822;6.754;2022-08-05T08:15:16;5.72;;;3.90;;
65459;SDS011;52058;49.822;6.754;2022-08-05T08:17:44;7.13;;;4.57;;
65459;SDS011;52058;49.822;6.754;2022-08-05T08:20:10;5.07;;;4.20;;
65459;SDS011;52058;49.822;6.754;2022-08-05T08:22:36;4.65;;;3.53;;
65459;SDS011;52058;49.822;6.754;2022-08-05T08:25:01;4.65;;;3.55;;
65459;SDS011;52058;49.822;6.754;2022-08-05T08:27:26;6.07;;;4.35;;
65459;SDS011;52058;49.822;6.754;2022-08-05T08:29:52;6.20;;;4.00;;
65459;SDS011;52058;49.822;6.754;2022-08-05T08:32:17;3.83;;;3.28;;
65459;SDS011;52058;49.822;6.754;2022-08-05T08:34:42;4.57;;;4.05;;
65459;SDS011;52058;49.822;6.754;2022-08-05T08:37:08;7.22;;;4.00;;
65459;SDS011;52058;49.822;6.754;2022-08-05T08:39:33;8.13;;;4.30;;
65459;SDS011;52058;49.822;6.754;2022-08-05T08:41:59;7.28;;;4.18;;
65459;SDS011;52058;49.822;6.754;2022-08-05T08:44:28;4.75;;;4.00;;
65459;SDS011;52058;49.822;6.754;2022-08-05T08:46:55;4.63;;;4.05;;
65459;SDS011;52058;49.822;6.754;2022-08-05T08:49:21;5.75;;;4.10;;
65459;SDS011;52058;49.822;6.754;2022-08-05T08:51:52;6.32;;;4.10;;
65459;SDS011;52058;49.822;6.754;2022-08-05T08:54:22;6.60;;;4.07;;
65459;SDS011;52058;49.822;6.754;2022-08-05T08:56:49;5.57;;;4.05;;
65459;SDS011;52058;49.822;6.754;2022-08-05T08:59:16;7.72;;;4.50;;
65459;SDS011;52058;49.822;6.754;2022-08-05T09:01:42;5.13;;;3.90;;
65459;SDS011;52058;49.822;6.754;2022-08-05T09:04:10;6.75;;;4.30;;
65459;SDS011;52058;49.822;6.754;2022-08-05T09:06:36;5.78;;;3.95;;
65459;SDS011;52058;49.822;6.754;2022-08-05T09:09:02;6.57;;;4.20;;
65459;SDS011;52058;49.822;6.754;2022-08-05T09:11:27;7.10;;;4.03;;
65459;SDS011;52058;49.822;6.754;2022-08-05T09:13:54;5.55;;;4.38;;
65459;SDS011;52058;49.822;6.754;2022-08-05T09:16:20;7.68;;;4.57;;
65459;SDS011;52058;49.822;6.754;2022-08-05T09:18:45;4.93;;;3.67;;
65459;SDS011;52058;49.822;6.754;2022-08-05T09:21:11;9.13;;;4.68;;
65459;SDS011;52058;49.822;6.754;2022-08-05T09:23:36;6.60;;;4.30;;
65459;SDS011;52058;49.822;6.754;2022-08-05T09:26:05;8.65;;;4.40;;
65459;SDS011;52058;49.822;6.754;2022-08-05T09:28:36;6.80;;;4.28;;
65459;SDS011;52058;49.822;6.754;2022-08-05T09:31:03;8.13;;;4.47;;
65459;SDS011;52058;49.822;6.754;2022-08-05T09:33:30;5.53;;;4.55;;
65459;SDS011;52058;49.822;6.754;2022-08-05T09:35:57;7.18;;;4.50;;
65459;SDS011;52058;49.822;6.754;2022-08-05T09:38:27;6.90;;;4.55;;
65459;SDS011;52058;49.822;6.754;2022-08-05T09:40:52;7.95;;;4.30;;
65459;SDS011;52058;49.822;6.754;2022-08-05T09:43:27;8.45;;;4.75;;
65459;SDS011;52058;49.822;6.754;2022-08-05T09:46:00;7.45;;;4.40;;
65459;SDS011;52058;49.822;6.754;2022-08-05T09:48:29;7.18;;;4.30;;
65459;SDS011;52058;49.822;6.754;2022-08-05T09:53:22;6.93;;;4.43;;
65459;SDS011;52058;49.822;6.754;2022-08-05T09:55:52;6.43;;;4.28;;
65459;SDS011;52058;49.822;6.754;2022-08-05T09:58:19;8.32;;;4.32;;
65459;SDS011;52058;49.822;6.754;2022-08-05T10:03:39;11.15;;;4.70;;
65459;SDS011;52058;49.822;6.754;2022-08-05T10:06:19;6.25;;;4.32;;
65459;SDS011;52058;49.822;6.754;2022-08-05T10:08:44;4.85;;;4.10;;
65459;SDS011;52058;49.822;6.754;2022-08-05T10:11:13;6.80;;;4.57;;
65459;SDS011;52058;49.822;6.754;2022-08-05T10:13:40;4.40;;;3.83;;
65459;SDS011;52058;49.822;6.754;2022-08-05T10:16:07;6.28;;;3.78;;
65459;SDS011;52058;49.822;6.754;2022-08-05T10:18:53;5.97;;;3.80;;
65459;SDS011;52058;49.822;6.754;2022-08-05T10:21:18;6.50;;;3.75;;
65459;SDS011;52058;49.822;6.754;2022-08-05T10:23:44;5.07;;;3.50;;
65459;SDS011;52058;49.822;6.754;2022-08-05T10:26:09;6.15;;;3.50;;
65459;SDS011;52058;49.822;6.754;2022-08-05T10:28:37;4.60;;;3.60;;
65459;SDS011;52058;49.822;6.754;2022-08-05T10:31:04;4.95;;;3.22;;
65459;SDS011;52058;49.822;6.754;2022-08-05T10:33:30;4.75;;;3.30;;
65459;SDS011;52058;49.822;6.754;2022-08-05T10:35:57;4.68;;;3.80;;
65459;SDS011;52058;49.822;6.754;2022-08-05T10:38:24;5.53;;;3.35;;
65459;SDS011;52058;49.822;6.754;2022-08-05T10:43:34;4.30;;;3.90;;
65459;SDS011;52058;49.822;6.754;2022-08-05T10:46:04;5.72;;;3.88;;
65459;SDS011;52058;49.822;6.754;2022-08-05T10:48:38;5.25;;;3.40;;
65459;SDS011;52058;49.822;6.754;2022-08-05T10:53:32;4.10;;;3.65;;
65459;SDS011;52058;49.822;6.754;2022-08-05T10:56:20;5.22;;;4.20;;
65459;SDS011;52058;49.822;6.754;2022-08-05T11:04:03;3.33;;;2.90;;
65459;SDS011;52058;49.822;6.754;2022-08-05T11:06:31;5.10;;;3.40;;
65459;SDS011;52058;49.822;6.754;2022-08-05T11:09:10;7.05;;;3.95;;
65459;SDS011;52058;49.822;6.754;2022-08-05T11:11:47;5.97;;;3.53;;
65459;SDS011;52058;49.822;6.754;2022-08-05T11:14:21;4.05;;;3.65;;
65459;SDS011;52058;49.822;6.754;2022-08-05T11:17:23;6.25;;;3.55;;
65459;SDS011;52058;49.822;6.754;2022-08-05T11:19:51;5.82;;;3.78;;
65459;SDS011;52058;49.822;6.754;2022-08-05T11:33:25;5.63;;;3.63;;
65459;SDS011;52058;49.822;6.754;2022-08-05T11:35:56;4.55;;;3.30;;
65459;SDS011;52058;49.822;6.754;2022-08-05T11:38:55;3.88;;;3.38;;
65459;SDS011;52058;49.822;6.754;2022-08-05T11:41:17;5.38;;;3.60;;
65459;SDS011;52058;49.822;6.754;2022-08-05T11:46:24;4.90;;;3.38;;
65459;SDS011;52058;49.822;6.754;2022-08-05T11:48:50;2.92;;;2.63;;
65459;SDS011;52058;49.822;6.754;2022-08-05T11:51:16;4.22;;;2.38;;
65459;SDS011;52058;49.822;6.754;2022-08-05T11:53:41;3.00;;;2.13;;
65459;SDS011;52058;49.822;6.754;2022-08-05T11:56:07;3.05;;;2.20;;
65459;SDS011;52058;49.822;6.754;2022-08-05T11:58:33;2.30;;;2.10;;
65459;SDS011;52058;49.822;6.754;2022-08-05T12:01:07;2.55;;;2.00;;
65459;SDS011;52058;49.822;6.754;2022-08-05T12:03:48;2.22;;;1.80;;
65459;SDS011;52058;49.822;6.754;2022-08-05T12:06:15;2.55;;;2.03;;
65459;SDS011;52058;49.822;6.754;2022-08-05T12:08:42;3.30;;;1.80;;
65459;SDS011;52058;49.822;6.754;2022-08-05T12:11:22;2.55;;;2.00;;
65459;SDS011;52058;49.822;6.754;2022-08-05T12:13:55;3.08;;;2.10;;
65459;SDS011;52058;49.822;6.754;2022-08-05T12:16:20;2.53;;;2.30;;
65459;SDS011;52058;49.822;6.754;2022-08-05T12:18:47;2.42;;;1.90;;
65459;SDS011;52058;49.822;6.754;2022-08-05T12:21:13;2.60;;;1.92;;
65459;SDS011;52058;49.822;6.754;2022-08-05T12:26:17;2.45;;;1.98;;
65459;SDS011;52058;49.822;6.754;2022-08-05T12:28:42;2.50;;;2.03;;
65459;SDS011;52058;49.822;6.754;2022-08-05T12:31:07;1.93;;;1.60;;
65459;SDS011;52058;49.822;6.754;2022-08-05T12:33:33;2.03;;;1.88;;
65459;SDS011;52058;49.822;6.754;2022-08-05T12:35:59;2.05;;;1.80;;
65459;SDS011;52058;49.822;6.754;2022-08-05T12:38:26;1.88;;;1.77;;
65459;SDS011;52058;49.822;6.754;2022-08-05T12:40:51;4.05;;;2.13;;
65459;SDS011;52058;49.822;6.754;2022-08-05T12:43:18;2.00;;;1.80;;
65459;SDS011;52058;49.822;6.754;2022-08-05T12:45:53;1.88;;;1.77;;
65459;SDS011;52058;49.822;6.754;2022-08-05T12:48:20;2.45;;;2.20;;
65459;SDS011;52058;49.822;6.754;2022-08-05T12:53:39;1.73;;;1.63;;
65459;SDS011;52058;49.822;6.754;2022-08-05T12:56:20;2.15;;;1.88;;
65459;SDS011;52058;49.822;6.754;2022-08-05T12:59:09;1.58;;;1.48;;
65459;SDS011;52058;49.822;6.754;2022-08-05T13:01:36;4.22;;;1.92;;
65459;SDS011;52058;49.822;6.754;2022-08-05T13:04:02;1.83;;;1.70;;
65459;SDS011;52058;49.822;6.754;2022-08-05T13:06:28;3.15;;;2.33;;
65459;SDS011;52058;49.822;6.754;2022-08-05T13:08:54;2.95;;;1.83;;
65459;SDS011;52058;49.822;6.754;2022-08-05T13:11:21;2.00;;;1.80;;
65459;SDS011;52058;49.822;6.754;2022-08-05T13:13:48;2.90;;;1.95;;
65459;SDS011;52058;49.822;6.754;2022-08-05T13:16:14;2.33;;;1.67;;
65459;SDS011;52058;49.822;6.754;2022-08-05T13:18:49;2.65;;;1.63;;
65459;SDS011;52058;49.822;6.754;2022-08-05T13:21:15;1.60;;;1.50;;
65459;SDS011;52058;49.822;6.754;2022-08-05T13:23:40;2.90;;;1.60;;
65459;SDS011;52058;49.822;6.754;2022-08-05T13:26:05;1.83;;;1.63;;
65459;SDS011;52058;49.822;6.754;2022-08-05T13:28:31;2.45;;;1.60;;
65459;SDS011;52058;49.822;6.754;2022-08-05T13:30:56;1.95;;;1.75;;
65459;SDS011;52058;49.822;6.754;2022-08-05T13:33:21;2.42;;;1.60;;
65459;SDS011;52058;49.822;6.754;2022-08-05T13:35:47;2.00;;;1.80;;
65459;SDS011;52058;49.822;6.754;2022-08-05T13:38:12;1.55;;;1.45;;
65459;SDS011;52058;49.822;6.754;2022-08-05T13:40:37;1.80;;;1.70;;
65459;SDS011;52058;49.822;6.754;2022-08-05T13:43:03;2.55;;;1.70;;
65459;SDS011;52058;49.822;6.754;2022-08-05T13:45:28;1.90;;;1.70;;
65459;SDS011;52058;49.822;6.754;2022-08-05T13:47:53;1.85;;;1.40;;
65459;SDS011;52058;49.822;6.754;2022-08-05T13:50:18;3.10;;;1.83;;
65459;SDS011;52058;49.822;6.754;2022-08-05T13:52:44;1.70;;;1.60;;
65459;SDS011;52058;49.822;6.754;2022-08-05T13:55:09;1.40;;;1.30;;
65459;SDS011;52058;49.822;6.754;2022-08-05T13:57:34;1.60;;;1.40;;
65459;SDS011;52058;49.822;6.754;2022-08-05T13:59:59;1.60;;;1.50;;
65459;SDS011;52058;49.822;6.754;2022-08-05T14:02:25;1.73;;;1.63;;
65459;SDS011;52058;49.822;6.754;2022-08-05T14:04:50;1.80;;;1.70;;
65459;SDS011;52058;49.822;6.754;2022-08-05T14:07:35;2.15;;;1.50;;
65459;SDS011;52058;49.822;6.754;2022-08-05T14:10:05;1.50;;;1.40;;
65459;SDS011;52058;49.822;6.754;2022-08-05T14:12:33;1.90;;;1.70;;
65459;SDS011;52058;49.822;6.754;2022-08-05T14:14:58;1.40;;;1.30;;
65459;SDS011;52058;49.822;6.754;2022-08-05T14:17:23;2.83;;;1.85;;
65459;SDS011;52058;49.822;6.754;2022-08-05T14:19:50;2.35;;;1.77;;
65459;SDS011;52058;49.822;6.754;2022-08-05T14:22:15;1.90;;;1.70;;
65459;SDS011;52058;49.822;6.754;2022-08-05T14:24:41;1.63;;;1.52;;
65459;SDS011;52058;49.822;6.754;2022-08-05T14:27:06;2.13;;;1.60;;
65459;SDS011;52058;49.822;6.754;2022-08-05T14:29:32;1.60;;;1.50;;
65459;SDS011;52058;49.822;6.754;2022-08-05T14:31:58;1.50;;;1.40;;
65459;SDS011;52058;49.822;6.754;2022-08-05T14:34:23;1.50;;;1.40;;
65459;SDS011;52058;49.822;6.754;2022-08-05T14:36:49;2.53;;;1.75;;
65459;SDS011;52058;49.822;6.754;2022-08-05T14:39:14;2.92;;;1.50;;
65459;SDS011;52058;49.822;6.754;2022-08-05T14:41:39;1.70;;;1.60;;
65459;SDS011;52058;49.822;6.754;2022-08-05T14:44:05;2.17;;;1.63;;
65459;SDS011;52058;49.822;6.754;2022-08-05T14:46:30;4.55;;;1.80;;
65459;SDS011;52058;49.822;6.754;2022-08-05T14:48:57;2.08;;;1.88;;
65459;SDS011;52058;49.822;6.754;2022-08-05T14:51:24;1.80;;;1.50;;
65459;SDS011;52058;49.822;6.754;2022-08-05T14:53:49;1.77;;;1.40;;
65459;SDS011;52058;49.822;6.754;2022-08-05T14:56:15;1.52;;;1.42;;
65459;SDS011;52058;49.822;6.754;2022-08-05T14:58:40;1.77;;;1.67;;
65459;SDS011;52058;49.822;6.754;2022-08-05T15:01:05;2.40;;;1.60;;
65459;SDS011;52058;49.822;6.754;2022-08-05T15:03:31;1.73;;;1.63;;
65459;SDS011;52058;49.822;6.754;2022-08-05T15:05:56;2.30;;;1.60;;
65459;SDS011;52058;49.822;6.754;2022-08-05T15:08:22;2.65;;;1.80;;
65459;SDS011;52058;49.822;6.754;2022-08-05T15:10:47;2.55;;;1.80;;
65459;SDS011;52058;49.822;6.754;2022-08-05T15:13:12;3.33;;;1.58;;
65459;SDS011;52058;49.822;6.754;2022-08-05T15:15:38;3.42;;;1.67;;
65459;SDS011;52058;49.822;6.754;2022-08-05T15:18:03;4.65;;;1.80;;
65459;SDS011;52058;49.822;6.754;2022-08-05T15:20:29;1.92;;;1.60;;
65459;SDS011;52058;49.822;6.754;2022-08-05T15:22:54;2.63;;;1.80;;
65459;SDS011;52058;49.822;6.754;2022-08-05T15:25:20;2.20;;;1.90;;